IKV weather

Ankeny Regional Airport
Ankeny, Iowa, United States

Public forecast

Using degrees Fahrenheit for public forecast. Weather courtesy of forecast.io.

Current aviation weather report (METAR) for Ankeny Regional Airport

Retrieved 2020/07/05 00:35 UTC (16 seconds ago):

KIKV 050035Z AUTO 12005KT 10SM CLR 29/19 A2998 RMK AO2

Closest aviation forecast (TAF) to Ankeny Regional Airport

Closest forecast is Des Moines International Airport, 10.4 nm (19.3 km) SSW. Retrieved 2020-07-05 00:36 UTC (0 seconds ago):

TAF KDSM 042333Z 0500/0524 12005KT P6SM FEW070 FEW250 FM050100 12003KT P6SM FEW200